Aviation Digital Data Service (ADDS)

Output produced by METARs form (1753 UTC 01 March 2017)
found at http://aviationweather.gov/adds/metars/
 
KPIT 011731Z 0118/0224 19014G26KT P6SM BKN045 
     FM012200 23016G29KT 4SM -SHRA VCTS BKN035CB 
     FM020100 28018G34KT P6SM VCSH BKN030 
     FM021700 28013KT P6SM BKN040